sensor_id;sensor_type;location;lat;lon;timestamp;temperature;humidity
71188;DHT22;58893;53.130;8.158;2023-03-11T00:02:06;4.40;90.80
71188;DHT22;58893;53.130;8.158;2023-03-11T00:04:31;4.50;90.80
71188;DHT22;58893;53.130;8.158;2023-03-11T00:06:57;4.50;90.80
71188;DHT22;58893;53.130;8.158;2023-03-11T00:09:23;4.50;90.70
71188;DHT22;58893;53.130;8.158;2023-03-11T00:11:48;4.50;90.70
71188;DHT22;58893;53.130;8.158;2023-03-11T00:14:14;4.40;90.60
71188;DHT22;58893;53.130;8.158;2023-03-11T00:16:39;4.40;90.60
71188;DHT22;58893;53.130;8.158;2023-03-11T00:19:05;4.40;90.60
71188;DHT22;58893;53.130;8.158;2023-03-11T00:21:31;4.40;90.60
71188;DHT22;58893;53.130;8.158;2023-03-11T00:23:56;4.40;90.60
71188;DHT22;58893;53.130;8.158;2023-03-11T00:26:26;4.40;90.60
71188;DHT22;58893;53.130;8.158;2023-03-11T00:28:51;4.40;90.70
71188;DHT22;58893;53.130;8.158;2023-03-11T00:31:17;4.40;90.80
71188;DHT22;58893;53.130;8.158;2023-03-11T00:33:43;4.40;90.90
71188;DHT22;58893;53.130;8.158;2023-03-11T00:36:29;4.50;91.00
71188;DHT22;58893;53.130;8.158;2023-03-11T00:38:59;4.50;91.00
71188;DHT22;58893;53.130;8.158;2023-03-11T00:41:27;4.50;91.10
71188;DHT22;58893;53.130;8.158;2023-03-11T00:43:52;4.50;91.10
71188;DHT22;58893;53.130;8.158;2023-03-11T00:46:18;4.50;91.10
71188;DHT22;58893;53.130;8.158;2023-03-11T00:48:44;4.50;91.10
71188;DHT22;58893;53.130;8.158;2023-03-11T00:51:14;4.50;91.30
71188;DHT22;58893;53.130;8.158;2023-03-11T00:53:40;4.50;91.00
71188;DHT22;58893;53.130;8.158;2023-03-11T00:56:10;4.50;91.00
71188;DHT22;58893;53.130;8.158;2023-03-11T00:58:37;4.50;91.00
71188;DHT22;58893;53.130;8.158;2023-03-11T01:01:07;4.50;91.00
71188;DHT22;58893;53.130;8.158;2023-03-11T01:03:33;4.50;90.90
71188;DHT22;58893;53.130;8.158;2023-03-11T01:05:59;4.50;90.80
71188;DHT22;58893;53.130;8.158;2023-03-11T01:08:25;4.50;90.80
71188;DHT22;58893;53.130;8.158;2023-03-11T01:10:51;4.50;90.70
71188;DHT22;58893;53.130;8.158;2023-03-11T01:13:17;4.50;90.70
71188;DHT22;58893;53.130;8.158;2023-03-11T01:15:43;4.50;90.60
71188;DHT22;58893;53.130;8.158;2023-03-11T01:18:09;4.50;90.50
71188;DHT22;58893;53.130;8.158;2023-03-11T01:20:36;4.50;90.40
71188;DHT22;58893;53.130;8.158;2023-03-11T01:23:02;4.40;90.30
71188;DHT22;58893;53.130;8.158;2023-03-11T01:25:28;4.40;90.20
71188;DHT22;58893;53.130;8.158;2023-03-11T01:27:54;4.50;90.10
71188;DHT22;58893;53.130;8.158;2023-03-11T01:30:22;4.40;90.10
71188;DHT22;58893;53.130;8.158;2023-03-11T01:32:49;4.40;90.00
71188;DHT22;58893;53.130;8.158;2023-03-11T01:35:17;4.40;89.80
71188;DHT22;58893;53.130;8.158;2023-03-11T01:37:43;4.40;89.80
71188;DHT22;58893;53.130;8.158;2023-03-11T01:40:31;4.40;89.80
71188;DHT22;58893;53.130;8.158;2023-03-11T01:42:58;4.40;89.70
71188;DHT22;58893;53.130;8.158;2023-03-11T01:48:14;4.40;89.50
71188;DHT22;58893;53.130;8.158;2023-03-11T01:50:42;4.30;89.50
71188;DHT22;58893;53.130;8.158;2023-03-11T01:53:10;4.30;89.50
71188;DHT22;58893;53.130;8.158;2023-03-11T01:55:37;4.30;89.40
71188;DHT22;58893;53.130;8.158;2023-03-11T01:58:09;4.30;89.30
71188;DHT22;58893;53.130;8.158;2023-03-11T02:00:36;4.30;89.00
71188;DHT22;58893;53.130;8.158;2023-03-11T02:03:08;4.30;88.90
71188;DHT22;58893;53.130;8.158;2023-03-11T02:05:34;4.30;88.70
71188;DHT22;58893;53.130;8.158;2023-03-11T02:08:00;4.30;88.60
71188;DHT22;58893;53.130;8.158;2023-03-11T02:10:27;4.30;88.40
71188;DHT22;58893;53.130;8.158;2023-03-11T02:12:53;4.30;88.20
71188;DHT22;58893;53.130;8.158;2023-03-11T02:15:18;4.30;88.20
71188;DHT22;58893;53.130;8.158;2023-03-11T02:17:44;4.30;88.30
71188;DHT22;58893;53.130;8.158;2023-03-11T02:23:00;4.30;88.20
71188;DHT22;58893;53.130;8.158;2023-03-11T02:25:50;4.30;88.10
71188;DHT22;58893;53.130;8.158;2023-03-11T02:28:18;4.30;88.10
71188;DHT22;58893;53.130;8.158;2023-03-11T02:30:46;4.30;88.00
71188;DHT22;58893;53.130;8.158;2023-03-11T02:33:13;4.30;87.90
71188;DHT22;58893;53.130;8.158;2023-03-11T02:35:39;4.30;87.70
71188;DHT22;58893;53.130;8.158;2023-03-11T02:38:05;4.30;87.70
71188;DHT22;58893;53.130;8.158;2023-03-11T02:40:43;4.30;87.80
71188;DHT22;58893;53.130;8.158;2023-03-11T02:43:13;4.30;87.70
71188;DHT22;58893;53.130;8.158;2023-03-11T02:45:43;4.30;87.60
71188;DHT22;58893;53.130;8.158;2023-03-11T02:48:11;4.30;87.40
71188;DHT22;58893;53.130;8.158;2023-03-11T02:50:37;4.30;87.30
71188;DHT22;58893;53.130;8.158;2023-03-11T02:53:04;4.30;87.20
71188;DHT22;58893;53.130;8.158;2023-03-11T02:55:30;4.30;87.00
71188;DHT22;58893;53.130;8.158;2023-03-11T02:57:56;4.30;86.70
71188;DHT22;58893;53.130;8.158;2023-03-11T03:00:21;4.30;86.40
71188;DHT22;58893;53.130;8.158;2023-03-11T03:02:47;4.30;86.00
71188;DHT22;58893;53.130;8.158;2023-03-11T03:05:17;4.30;85.70
71188;DHT22;58893;53.130;8.158;2023-03-11T03:07:46;4.30;85.40
71188;DHT22;58893;53.130;8.158;2023-03-11T03:10:13;4.30;85.30
71188;DHT22;58893;53.130;8.158;2023-03-11T03:12:39;4.30;85.20
71188;DHT22;58893;53.130;8.158;2023-03-11T03:15:05;4.30;85.10
71188;DHT22;58893;53.130;8.158;2023-03-11T03:17:31;4.30;84.90
71188;DHT22;58893;53.130;8.158;2023-03-11T03:19:57;4.30;84.80
71188;DHT22;58893;53.130;8.158;2023-03-11T03:22:22;4.30;84.50
71188;DHT22;58893;53.130;8.158;2023-03-11T03:24:52;4.30;84.30
71188;DHT22;58893;53.130;8.158;2023-03-11T03:27:18;4.30;84.00
71188;DHT22;58893;53.130;8.158;2023-03-11T03:29:43;4.20;83.40
71188;DHT22;58893;53.130;8.158;2023-03-11T03:32:09;4.20;83.00
71188;DHT22;58893;53.130;8.158;2023-03-11T03:34:34;4.20;82.90
71188;DHT22;58893;53.130;8.158;2023-03-11T03:37:00;4.20;82.70
71188;DHT22;58893;53.130;8.158;2023-03-11T03:39:26;4.20;82.80
71188;DHT22;58893;53.130;8.158;2023-03-11T03:41:51;4.20;83.00
71188;DHT22;58893;53.130;8.158;2023-03-11T03:44:17;4.20;83.10
71188;DHT22;58893;53.130;8.158;2023-03-11T03:46:42;4.20;83.20
71188;DHT22;58893;53.130;8.158;2023-03-11T03:49:08;4.20;83.10
71188;DHT22;58893;53.130;8.158;2023-03-11T03:51:34;4.20;83.00
71188;DHT22;58893;53.130;8.158;2023-03-11T03:53:59;4.20;82.80
71188;DHT22;58893;53.130;8.158;2023-03-11T03:56:25;4.20;82.80
71188;DHT22;58893;53.130;8.158;2023-03-11T03:58:52;4.20;82.70
71188;DHT22;58893;53.130;8.158;2023-03-11T04:01:18;4.20;82.60
71188;DHT22;58893;53.130;8.158;2023-03-11T04:03:46;4.20;82.50
71188;DHT22;58893;53.130;8.158;2023-03-11T04:06:21;4.10;82.40
71188;DHT22;58893;53.130;8.158;2023-03-11T04:08:47;4.10;82.30
71188;DHT22;58893;53.130;8.158;2023-03-11T04:11:13;4.10;82.20
71188;DHT22;58893;53.130;8.158;2023-03-11T04:13:38;4.10;82.20
71188;DHT22;58893;53.130;8.158;2023-03-11T04:16:05;4.10;82.00
71188;DHT22;58893;53.130;8.158;2023-03-11T04:18:31;4.10;81.90
71188;DHT22;58893;53.130;8.158;2023-03-11T04:20:57;4.10;81.80
71188;DHT22;58893;53.130;8.158;2023-03-11T04:23:23;4.10;81.80
71188;DHT22;58893;53.130;8.158;2023-03-11T04:25:48;4.10;81.50
71188;DHT22;58893;53.130;8.158;2023-03-11T04:28:14;4.00;81.30
71188;DHT22;58893;53.130;8.158;2023-03-11T04:30:40;4.00;81.20
71188;DHT22;58893;53.130;8.158;2023-03-11T04:33:06;4.00;81.00
71188;DHT22;58893;53.130;8.158;2023-03-11T04:35:31;4.00;80.90
71188;DHT22;58893;53.130;8.158;2023-03-11T04:37:57;4.00;80.90
71188;DHT22;58893;53.130;8.158;2023-03-11T04:40:24;3.90;80.90
71188;DHT22;58893;53.130;8.158;2023-03-11T04:42:49;3.90;80.90
71188;DHT22;58893;53.130;8.158;2023-03-11T04:45:15;3.90;80.60
71188;DHT22;58893;53.130;8.158;2023-03-11T04:47:42;3.90;80.60
71188;DHT22;58893;53.130;8.158;2023-03-11T04:50:08;3.90;80.40
71188;DHT22;58893;53.130;8.158;2023-03-11T04:52:34;3.90;80.40
71188;DHT22;58893;53.130;8.158;2023-03-11T04:55:00;3.90;80.20
71188;DHT22;58893;53.130;8.158;2023-03-11T04:57:25;3.90;80.10
71188;DHT22;58893;53.130;8.158;2023-03-11T04:59:51;3.90;80.00
71188;DHT22;58893;53.130;8.158;2023-03-11T05:02:16;3.90;79.90
71188;DHT22;58893;53.130;8.158;2023-03-11T05:04:42;3.80;79.60
71188;DHT22;58893;53.130;8.158;2023-03-11T05:07:09;3.80;79.60
71188;DHT22;58893;53.130;8.158;2023-03-11T05:09:35;3.80;79.60
71188;DHT22;58893;53.130;8.158;2023-03-11T05:12:00;3.80;79.50
71188;DHT22;58893;53.130;8.158;2023-03-11T05:14:26;3.80;79.40
71188;DHT22;58893;53.130;8.158;2023-03-11T05:16:52;3.80;79.30
71188;DHT22;58893;53.130;8.158;2023-03-11T05:19:17;3.80;79.20
71188;DHT22;58893;53.130;8.158;2023-03-11T05:21:55;3.70;79.00
71188;DHT22;58893;53.130;8.158;2023-03-11T05:24:21;3.70;79.00
71188;DHT22;58893;53.130;8.158;2023-03-11T05:26:47;3.70;78.90
71188;DHT22;58893;53.130;8.158;2023-03-11T05:29:13;3.70;79.10
71188;DHT22;58893;53.130;8.158;2023-03-11T05:31:39;3.70;78.90
71188;DHT22;58893;53.130;8.158;2023-03-11T05:34:04;3.60;78.80
71188;DHT22;58893;53.130;8.158;2023-03-11T05:36:30;3.60;78.80
71188;DHT22;58893;53.130;8.158;2023-03-11T05:38:56;3.60;78.90
71188;DHT22;58893;53.130;8.158;2023-03-11T05:41:21;3.60;78.90
71188;DHT22;58893;53.130;8.158;2023-03-11T05:43:47;3.60;78.90
71188;DHT22;58893;53.130;8.158;2023-03-11T05:46:13;3.50;78.70
71188;DHT22;58893;53.130;8.158;2023-03-11T05:48:38;3.50;78.60
71188;DHT22;58893;53.130;8.158;2023-03-11T05:51:08;3.50;78.70
71188;DHT22;58893;53.130;8.158;2023-03-11T05:53:33;3.50;78.70
71188;DHT22;58893;53.130;8.158;2023-03-11T05:56:00;3.50;78.50
71188;DHT22;58893;53.130;8.158;2023-03-11T05:58:27;3.40;78.50
71188;DHT22;58893;53.130;8.158;2023-03-11T06:00:53;3.40;78.40
71188;DHT22;58893;53.130;8.158;2023-03-11T06:03:18;3.40;78.40
71188;DHT22;58893;53.130;8.158;2023-03-11T06:05:45;3.40;79.10
71188;DHT22;58893;53.130;8.158;2023-03-11T06:08:11;3.40;78.40
71188;DHT22;58893;53.130;8.158;2023-03-11T06:10:37;3.40;78.40
71188;DHT22;58893;53.130;8.158;2023-03-11T06:13:02;3.40;78.40
71188;DHT22;58893;53.130;8.158;2023-03-11T06:15:28;3.40;78.40
71188;DHT22;58893;53.130;8.158;2023-03-11T06:17:53;3.30;78.40
71188;DHT22;58893;53.130;8.158;2023-03-11T06:20:19;3.30;78.30
71188;DHT22;58893;53.130;8.158;2023-03-11T06:22:47;3.40;78.40
71188;DHT22;58893;53.130;8.158;2023-03-11T06:25:13;3.30;78.30
71188;DHT22;58893;53.130;8.158;2023-03-11T06:27:39;3.30;78.30
71188;DHT22;58893;53.130;8.158;2023-03-11T06:30:05;3.30;78.30
71188;DHT22;58893;53.130;8.158;2023-03-11T06:32:31;3.30;78.30
71188;DHT22;58893;53.130;8.158;2023-03-11T06:34:58;3.40;78.40
71188;DHT22;58893;53.130;8.158;2023-03-11T06:37:24;3.40;78.40
71188;DHT22;58893;53.130;8.158;2023-03-11T06:39:53;3.40;78.40
71188;DHT22;58893;53.130;8.158;2023-03-11T06:42:19;3.40;78.40
71188;DHT22;58893;53.130;8.158;2023-03-11T06:44:48;3.40;78.30
71188;DHT22;58893;53.130;8.158;2023-03-11T06:47:15;3.40;78.20
71188;DHT22;58893;53.130;8.158;2023-03-11T06:49:40;3.40;78.20
71188;DHT22;58893;53.130;8.158;2023-03-11T06:52:07;3.40;78.20
71188;DHT22;58893;53.130;8.158;2023-03-11T06:54:33;3.40;78.20
71188;DHT22;58893;53.130;8.158;2023-03-11T06:56:59;3.40;78.20
71188;DHT22;58893;53.130;8.158;2023-03-11T06:59:25;3.50;78.40
71188;DHT22;58893;53.130;8.158;2023-03-11T07:01:53;3.50;78.40
71188;DHT22;58893;53.130;8.158;2023-03-11T07:04:19;3.50;78.40
71188;DHT22;58893;53.130;8.158;2023-03-11T07:06:45;3.50;78.50
71188;DHT22;58893;53.130;8.158;2023-03-11T07:09:11;3.60;78.60
71188;DHT22;58893;53.130;8.158;2023-03-11T07:11:37;3.60;78.70
71188;DHT22;58893;53.130;8.158;2023-03-11T07:14:03;3.60;78.70
71188;DHT22;58893;53.130;8.158;2023-03-11T07:16:29;3.60;78.50
71188;DHT22;58893;53.130;8.158;2023-03-11T07:18:57;3.60;78.50
71188;DHT22;58893;53.130;8.158;2023-03-11T07:21:26;3.70;78.60
71188;DHT22;58893;53.130;8.158;2023-03-11T07:23:57;3.70;78.60
71188;DHT22;58893;53.130;8.158;2023-03-11T07:26:24;3.70;78.60
71188;DHT22;58893;53.130;8.158;2023-03-11T07:28:50;3.70;78.60
71188;DHT22;58893;53.130;8.158;2023-03-11T07:31:18;3.80;78.70
71188;DHT22;58893;53.130;8.158;2023-03-11T07:33:44;3.80;78.70
71188;DHT22;58893;53.130;8.158;2023-03-11T07:36:12;3.80;78.70
71188;DHT22;58893;53.130;8.158;2023-03-11T07:38:39;3.80;78.60
71188;DHT22;58893;53.130;8.158;2023-03-11T07:41:05;3.90;78.80
71188;DHT22;58893;53.130;8.158;2023-03-11T07:43:31;3.90;78.70
71188;DHT22;58893;53.130;8.158;2023-03-11T07:48:34;3.90;78.80
71188;DHT22;58893;53.130;8.158;2023-03-11T07:51:04;4.00;78.90
71188;DHT22;58893;53.130;8.158;2023-03-11T07:53:30;4.00;78.90
71188;DHT22;58893;53.130;8.158;2023-03-11T07:55:57;4.00;78.80
71188;DHT22;58893;53.130;8.158;2023-03-11T07:58:23;4.10;78.90
71188;DHT22;58893;53.130;8.158;2023-03-11T08:00:49;4.10;78.90
71188;DHT22;58893;53.130;8.158;2023-03-11T08:03:14;4.10;79.00
71188;DHT22;58893;53.130;8.158;2023-03-11T08:05:40;4.20;79.10
71188;DHT22;58893;53.130;8.158;2023-03-11T08:08:05;4.20;79.30
71188;DHT22;58893;53.130;8.158;2023-03-11T08:10:31;4.30;79.50
71188;DHT22;58893;53.130;8.158;2023-03-11T08:12:57;4.40;79.80
71188;DHT22;58893;53.130;8.158;2023-03-11T08:15:22;4.50;79.80
71188;DHT22;58893;53.130;8.158;2023-03-11T08:17:48;4.60;79.60
71188;DHT22;58893;53.130;8.158;2023-03-11T08:20:13;4.70;79.40
71188;DHT22;58893;53.130;8.158;2023-03-11T08:22:39;4.80;79.30
71188;DHT22;58893;53.130;8.158;2023-03-11T08:25:05;5.00;79.00
71188;DHT22;58893;53.130;8.158;2023-03-11T08:27:30;5.10;78.50
71188;DHT22;58893;53.130;8.158;2023-03-11T08:29:57;5.30;78.20
71188;DHT22;58893;53.130;8.158;2023-03-11T08:32:22;5.40;77.50
71188;DHT22;58893;53.130;8.158;2023-03-11T08:34:48;5.60;77.10
71188;DHT22;58893;53.130;8.158;2023-03-11T08:37:14;5.70;76.30
71188;DHT22;58893;53.130;8.158;2023-03-11T08:39:39;5.90;75.60
71188;DHT22;58893;53.130;8.158;2023-03-11T08:42:05;6.00;75.20
71188;DHT22;58893;53.130;8.158;2023-03-11T08:44:31;6.20;74.80
71188;DHT22;58893;53.130;8.158;2023-03-11T08:46:56;6.30;74.30
71188;DHT22;58893;53.130;8.158;2023-03-11T08:49:22;6.50;73.80
71188;DHT22;58893;53.130;8.158;2023-03-11T08:51:48;6.60;73.40
71188;DHT22;58893;53.130;8.158;2023-03-11T08:54:14;6.70;73.00
71188;DHT22;58893;53.130;8.158;2023-03-11T08:56:40;6.80;72.70
71188;DHT22;58893;53.130;8.158;2023-03-11T08:59:05;6.90;72.40
71188;DHT22;58893;53.130;8.158;2023-03-11T09:01:32;7.00;72.30
71188;DHT22;58893;53.130;8.158;2023-03-11T09:03:58;7.20;72.10
71188;DHT22;58893;53.130;8.158;2023-03-11T09:06:24;7.20;71.90
71188;DHT22;58893;53.130;8.158;2023-03-11T09:08:50;7.30;71.50
71188;DHT22;58893;53.130;8.158;2023-03-11T09:11:16;7.30;71.30
71188;DHT22;58893;53.130;8.158;2023-03-11T09:13:42;7.40;71.80
71188;DHT22;58893;53.130;8.158;2023-03-11T09:16:12;7.40;70.70
71188;DHT22;58893;53.130;8.158;2023-03-11T09:18:37;7.40;70.60
71188;DHT22;58893;53.130;8.158;2023-03-11T09:21:03;7.40;70.60
71188;DHT22;58893;53.130;8.158;2023-03-11T09:23:29;7.40;70.40
71188;DHT22;58893;53.130;8.158;2023-03-11T09:25:54;7.40;70.50
71188;DHT22;58893;53.130;8.158;2023-03-11T09:28:20;7.40;70.60
71188;DHT22;58893;53.130;8.158;2023-03-11T09:30:45;7.40;70.80
71188;DHT22;58893;53.130;8.158;2023-03-11T09:33:11;7.40;70.80
71188;DHT22;58893;53.130;8.158;2023-03-11T09:35:37;7.40;70.60
71188;DHT22;58893;53.130;8.158;2023-03-11T09:38:03;7.40;70.30
71188;DHT22;58893;53.130;8.158;2023-03-11T09:40:45;7.30;70.20
71188;DHT22;58893;53.130;8.158;2023-03-11T09:51:27;7.20;70.80
71188;DHT22;58893;53.130;8.158;2023-03-11T09:54:05;7.20;71.00
71188;DHT22;58893;53.130;8.158;2023-03-11T09:56:34;7.20;71.30
71188;DHT22;58893;53.130;8.158;2023-03-11T09:59:18;7.20;71.60
71188;DHT22;58893;53.130;8.158;2023-03-11T10:01:48;7.20;71.60
71188;DHT22;58893;53.130;8.158;2023-03-11T10:04:49;7.20;71.60
71188;DHT22;58893;53.130;8.158;2023-03-11T10:07:19;7.20;71.60
71188;DHT22;58893;53.130;8.158;2023-03-11T10:09:50;7.20;71.70
71188;DHT22;58893;53.130;8.158;2023-03-11T10:15:23;7.30;71.60
71188;DHT22;58893;53.130;8.158;2023-03-11T10:18:17;7.30;71.70
71188;DHT22;58893;53.130;8.158;2023-03-11T10:28:28;7.50;72.00
71188;DHT22;58893;53.130;8.158;2023-03-11T10:34:03;7.60;71.50
71188;DHT22;58893;53.130;8.158;2023-03-11T10:39:22;7.70;71.00
71188;DHT22;58893;53.130;8.158;2023-03-11T10:42:00;7.70;70.70
71188;DHT22;58893;53.130;8.158;2023-03-11T10:44:34;7.80;70.90
71188;DHT22;58893;53.130;8.158;2023-03-11T10:47:00;7.90;71.80
71188;DHT22;58893;53.130;8.158;2023-03-11T10:49:26;7.90;71.10
71188;DHT22;58893;53.130;8.158;2023-03-11T10:51:53;8.00;70.70
71188;DHT22;58893;53.130;8.158;2023-03-11T10:57:04;8.20;69.90
71188;DHT22;58893;53.130;8.158;2023-03-11T10:59:47;8.30;69.70
71188;DHT22;58893;53.130;8.158;2023-03-11T11:02:29;8.30;69.50
71188;DHT22;58893;53.130;8.158;2023-03-11T11:07:35;8.50;68.70
71188;DHT22;58893;53.130;8.158;2023-03-11T11:12:56;8.60;68.30
71188;DHT22;58893;53.130;8.158;2023-03-11T11:15:31;8.60;67.90
71188;DHT22;58893;53.130;8.158;2023-03-11T11:18:25;8.70;67.40
71188;DHT22;58893;53.130;8.158;2023-03-11T11:21:07;8.70;67.00
71188;DHT22;58893;53.130;8.158;2023-03-11T11:23:43;8.70;66.40
71188;DHT22;58893;53.130;8.158;2023-03-11T11:26:24;8.80;66.60
71188;DHT22;58893;53.130;8.158;2023-03-11T11:31:35;8.80;66.60
71188;DHT22;58893;53.130;8.158;2023-03-11T11:34:01;8.80;66.40
71188;DHT22;58893;53.130;8.158;2023-03-11T11:36:29;8.80;66.30
71188;DHT22;58893;53.130;8.158;2023-03-11T11:38:56;8.90;66.20
71188;DHT22;58893;53.130;8.158;2023-03-11T11:41:25;8.90;66.00
71188;DHT22;58893;53.130;8.158;2023-03-11T11:44:00;8.90;65.90
71188;DHT22;58893;53.130;8.158;2023-03-11T11:46:44;8.90;65.70
71188;DHT22;58893;53.130;8.158;2023-03-11T11:49:23;8.90;65.80
71188;DHT22;58893;53.130;8.158;2023-03-11T11:54:57;8.90;66.50
71188;DHT22;58893;53.130;8.158;2023-03-11T11:57:26;9.00;66.50
71188;DHT22;58893;53.130;8.158;2023-03-11T11:59:52;9.00;65.90
71188;DHT22;58893;53.130;8.158;2023-03-11T12:05:28;8.90;65.40
71188;DHT22;58893;53.130;8.158;2023-03-11T12:11:03;8.90;65.10
71188;DHT22;58893;53.130;8.158;2023-03-11T12:18:50;8.90;64.90
71188;DHT22;58893;53.130;8.158;2023-03-11T12:21:30;8.90;64.70
71188;DHT22;58893;53.130;8.158;2023-03-11T12:24:22;8.80;64.60
71188;DHT22;58893;53.130;8.158;2023-03-11T12:26:59;8.80;65.00
71188;DHT22;58893;53.130;8.158;2023-03-11T12:29:33;8.80;65.00
71188;DHT22;58893;53.130;8.158;2023-03-11T12:32:00;8.80;64.30
71188;DHT22;58893;53.130;8.158;2023-03-11T12:34:27;8.80;64.30
71188;DHT22;58893;53.130;8.158;2023-03-11T12:36:56;8.80;64.90
71188;DHT22;58893;53.130;8.158;2023-03-11T12:39:31;8.80;64.80
71188;DHT22;58893;53.130;8.158;2023-03-11T12:44:38;8.80;64.60
71188;DHT22;58893;53.130;8.158;2023-03-11T12:47:17;8.80;64.50
71188;DHT22;58893;53.130;8.158;2023-03-11T12:49:54;8.80;63.80
71188;DHT22;58893;53.130;8.158;2023-03-11T12:52:25;8.70;63.40
71188;DHT22;58893;53.130;8.158;2023-03-11T13:08:43;8.60;62.90
71188;DHT22;58893;53.130;8.158;2023-03-11T13:11:46;8.60;62.60
71188;DHT22;58893;53.130;8.158;2023-03-11T13:14:22;8.60;63.60
71188;DHT22;58893;53.130;8.158;2023-03-11T13:16:48;8.70;63.50
71188;DHT22;58893;53.130;8.158;2023-03-11T13:21:56;8.70;63.40
71188;DHT22;58893;53.130;8.158;2023-03-11T13:29:43;8.80;63.30
71188;DHT22;58893;53.130;8.158;2023-03-11T13:33:03;8.70;62.40
71188;DHT22;58893;53.130;8.158;2023-03-11T13:35:32;8.70;62.50
71188;DHT22;58893;53.130;8.158;2023-03-11T13:40:39;8.70;62.60
71188;DHT22;58893;53.130;8.158;2023-03-11T13:43:14;8.70;62.70
71188;DHT22;58893;53.130;8.158;2023-03-11T13:46:12;8.60;62.50
71188;DHT22;58893;53.130;8.158;2023-03-11T13:48:45;8.70;62.70
71188;DHT22;58893;53.130;8.158;2023-03-11T13:51:37;8.60;63.00
71188;DHT22;58893;53.130;8.158;2023-03-11T13:54:04;8.60;63.10
71188;DHT22;58893;53.130;8.158;2023-03-11T13:56:48;8.60;62.50
71188;DHT22;58893;53.130;8.158;2023-03-11T13:59:26;8.60;62.50
71188;DHT22;58893;53.130;8.158;2023-03-11T14:01:59;8.60;62.30
71188;DHT22;58893;53.130;8.158;2023-03-11T14:04:31;8.50;62.40
71188;DHT22;58893;53.130;8.158;2023-03-11T14:06:57;8.50;62.20
71188;DHT22;58893;53.130;8.158;2023-03-11T14:09:25;8.50;62.20
71188;DHT22;58893;53.130;8.158;2023-03-11T14:11:52;8.50;62.20
71188;DHT22;58893;53.130;8.158;2023-03-11T14:17:13;8.50;62.00
71188;DHT22;58893;53.130;8.158;2023-03-11T14:19:40;8.50;62.20
71188;DHT22;58893;53.130;8.158;2023-03-11T14:22:09;8.50;62.50
71188;DHT22;58893;53.130;8.158;2023-03-11T14:24:35;8.50;62.50
71188;DHT22;58893;53.130;8.158;2023-03-11T14:27:07;8.50;61.90
71188;DHT22;58893;53.130;8.158;2023-03-11T14:29:38;8.50;61.90
71188;DHT22;58893;53.130;8.158;2023-03-11T14:32:29;8.40;61.90
71188;DHT22;58893;53.130;8.158;2023-03-11T14:34:56;8.40;61.60
71188;DHT22;58893;53.130;8.158;2023-03-11T14:37:36;8.40;61.50
71188;DHT22;58893;53.130;8.158;2023-03-11T14:40:17;8.40;61.50
71188;DHT22;58893;53.130;8.158;2023-03-11T14:42:44;8.40;61.50
71188;DHT22;58893;53.130;8.158;2023-03-11T14:45:14;8.40;61.80
71188;DHT22;58893;53.130;8.158;2023-03-11T14:50:16;8.30;61.60
71188;DHT22;58893;53.130;8.158;2023-03-11T14:52:49;8.30;61.50
71188;DHT22;58893;53.130;8.158;2023-03-11T14:55:20;8.30;61.30
71188;DHT22;58893;53.130;8.158;2023-03-11T14:58:02;8.30;61.70
71188;DHT22;58893;53.130;8.158;2023-03-11T15:00:34;8.30;61.80
71188;DHT22;58893;53.130;8.158;2023-03-11T15:03:20;8.30;62.00
71188;DHT22;58893;53.130;8.158;2023-03-11T15:05:51;8.30;61.60
71188;DHT22;58893;53.130;8.158;2023-03-11T15:08:19;8.30;61.70
71188;DHT22;58893;53.130;8.158;2023-03-11T15:13:41;8.30;61.90
71188;DHT22;58893;53.130;8.158;2023-03-11T15:18:49;8.30;61.60
71188;DHT22;58893;53.130;8.158;2023-03-11T15:21:16;8.30;61.60
71188;DHT22;58893;53.130;8.158;2023-03-11T15:24:03;8.30;61.40
71188;DHT22;58893;53.130;8.158;2023-03-11T15:26:32;8.30;61.40
71188;DHT22;58893;53.130;8.158;2023-03-11T15:29:15;8.30;61.50
71188;DHT22;58893;53.130;8.158;2023-03-11T15:31:42;8.30;61.80
71188;DHT22;58893;53.130;8.158;2023-03-11T15:34:22;8.30;62.10
71188;DHT22;58893;53.130;8.158;2023-03-11T15:39:17;8.30;61.90
71188;DHT22;58893;53.130;8.158;2023-03-11T15:44:37;8.30;61.80
71188;DHT22;58893;53.130;8.158;2023-03-11T15:47:12;8.20;61.80
71188;DHT22;58893;53.130;8.158;2023-03-11T15:49:39;8.20;62.00
71188;DHT22;58893;53.130;8.158;2023-03-11T15:52:05;8.20;62.30
71188;DHT22;58893;53.130;8.158;2023-03-11T15:54:31;8.20;62.60
71188;DHT22;58893;53.130;8.158;2023-03-11T15:56:57;8.20;62.80
71188;DHT22;58893;53.130;8.158;2023-03-11T15:59:25;8.30;63.10
71188;DHT22;58893;53.130;8.158;2023-03-11T16:01:51;8.30;63.10
71188;DHT22;58893;53.130;8.158;2023-03-11T16:04:18;8.30;63.00
71188;DHT22;58893;53.130;8.158;2023-03-11T16:06:44;8.30;63.00
71188;DHT22;58893;53.130;8.158;2023-03-11T16:09:10;8.30;63.30
71188;DHT22;58893;53.130;8.158;2023-03-11T16:11:36;8.30;64.00
71188;DHT22;58893;53.130;8.158;2023-03-11T16:14:02;8.20;65.00
71188;DHT22;58893;53.130;8.158;2023-03-11T16:16:28;8.20;65.70
71188;DHT22;58893;53.130;8.158;2023-03-11T16:18:54;8.20;66.70
71188;DHT22;58893;53.130;8.158;2023-03-11T16:21:22;8.10;67.40
71188;DHT22;58893;53.130;8.158;2023-03-11T16:23:48;8.10;67.70
71188;DHT22;58893;53.130;8.158;2023-03-11T16:26:15;8.10;68.10
71188;DHT22;58893;53.130;8.158;2023-03-11T16:28:41;8.00;68.40
71188;DHT22;58893;53.130;8.158;2023-03-11T16:31:07;8.00;68.70
71188;DHT22;58893;53.130;8.158;2023-03-11T16:33:34;7.90;69.00
71188;DHT22;58893;53.130;8.158;2023-03-11T16:36:00;7.90;69.30
71188;DHT22;58893;53.130;8.158;2023-03-11T16:38:25;7.90;69.60
71188;DHT22;58893;53.130;8.158;2023-03-11T16:40:59;7.80;69.90
71188;DHT22;58893;53.130;8.158;2023-03-11T16:43:26;7.80;70.20
71188;DHT22;58893;53.130;8.158;2023-03-11T16:45:52;7.70;70.00
71188;DHT22;58893;53.130;8.158;2023-03-11T16:48:22;7.70;69.40
71188;DHT22;58893;53.130;8.158;2023-03-11T16:50:48;7.70;68.90
71188;DHT22;58893;53.130;8.158;2023-03-11T16:53:13;7.60;67.50
71188;DHT22;58893;53.130;8.158;2023-03-11T16:55:43;7.60;66.40
71188;DHT22;58893;53.130;8.158;2023-03-11T16:58:09;7.50;65.50
71188;DHT22;58893;53.130;8.158;2023-03-11T17:00:35;7.50;65.60
71188;DHT22;58893;53.130;8.158;2023-03-11T17:03:01;7.40;65.40
71188;DHT22;58893;53.130;8.158;2023-03-11T17:05:27;7.40;65.40
71188;DHT22;58893;53.130;8.158;2023-03-11T17:07:54;7.40;66.40
71188;DHT22;58893;53.130;8.158;2023-03-11T17:10:24;7.40;67.80
71188;DHT22;58893;53.130;8.158;2023-03-11T17:12:50;7.30;68.90
71188;DHT22;58893;53.130;8.158;2023-03-11T17:15:16;7.30;69.80
71188;DHT22;58893;53.130;8.158;2023-03-11T17:17:41;7.30;71.00
71188;DHT22;58893;53.130;8.158;2023-03-11T17:20:07;7.20;72.00
71188;DHT22;58893;53.130;8.158;2023-03-11T17:22:34;7.20;72.50
71188;DHT22;58893;53.130;8.158;2023-03-11T17:24:59;7.10;73.20
71188;DHT22;58893;53.130;8.158;2023-03-11T17:27:26;7.10;73.70
71188;DHT22;58893;53.130;8.158;2023-03-11T17:29:59;7.00;74.10
71188;DHT22;58893;53.130;8.158;2023-03-11T17:32:26;6.90;74.50
71188;DHT22;58893;53.130;8.158;2023-03-11T17:34:51;6.90;74.90
71188;DHT22;58893;53.130;8.158;2023-03-11T17:37:18;6.80;75.30